Time;durP1;ratioP1;P1;durP2;ratioP2;P2;SDS_P1;SDS_P2;PMS_P1;PMS_P2;Temp;Humidity;BMP_temperature;BMP_pressure;BME280_temperature;BME280_humidity;BME280_pressure;Samples;Min_cycle;Max_cycle;Signal;HPM_P1;HPM_P2
2020/12/01 00:01:11;;;;;;;44.43;18.57;;;;;;;-1.04;74.75;99742.37;125863;1101;104417;-71
2020/12/01 00:03:42;;;;;;;42.07;17.50;;;;;;;-1.08;74.67;99732.86;125903;1101;104481;-71
2020/12/01 00:06:10;;;;;;;39.00;17.30;;;;;;;-1.08;73.91;99735.47;125904;1101;104484;-72
2020/12/01 00:08:38;;;;;;;39.90;19.40;;;;;;;-1.08;74.64;99731.09;125856;1101;104926;-70
2020/12/01 00:11:07;;;;;;;43.43;20.57;;;;;;;-1.11;74.37;99732.89;125885;1101;104484;-71
2020/12/01 00:13:35;;;;;;;45.60;21.00;;;;;;;-1.13;74.97;99730.29;125866;1101;104479;-70
2020/12/01 00:16:02;;;;;;;48.17;21.80;;;;;;;-1.13;74.38;99730.29;125915;1101;104528;-72
2020/12/01 00:18:29;;;;;;;50.10;22.93;;;;;;;-1.09;74.33;99734.59;125862;1101;104475;-71
2020/12/01 00:20:56;;;;;;;46.07;20.97;;;;;;;-1.07;74.40;99737.20;125785;1101;104506;-70
2020/12/01 00:23:23;;;;;;;42.17;19.17;;;;;;;-1.07;74.59;99732.82;125815;1101;104420;-71
2020/12/01 00:25:50;;;;;;;41.77;19.67;;;;;;;-1.08;74.10;99732.86;125828;1101;104542;-71
2020/12/01 00:28:17;;;;;;;43.37;19.30;;;;;;;-1.11;73.87;99728.52;125938;1101;104586;-72
2020/12/01 00:30:44;;;;;;;47.53;21.30;;;;;;;-1.14;73.97;99731.17;125913;1100;105000;-72
2020/12/01 00:33:12;;;;;;;48.87;21.10;;;;;;;-1.15;74.10;99731.21;125863;1101;104611;-71
2020/12/01 00:35:39;;;;;;;43.87;20.43;;;;;;;-1.19;74.72;99735.59;125875;1101;104484;-70
2020/12/01 00:38:07;;;;;;;45.50;21.95;;;;;;;-1.21;74.07;99724.30;125831;1101;104958;-71
2020/12/01 00:40:34;;;;;;;43.30;18.50;;;;;;;-1.22;73.98;99731.30;125823;1101;104448;-73
2020/12/01 00:43:00;;;;;;;45.37;20.17;;;;;;;-1.26;73.82;99726.99;125890;1101;104423;-71
2020/12/01 00:45:27;;;;;;;44.88;20.48;;;;;;;-1.33;73.98;99727.95;125867;1095;104534;-71
2020/12/01 00:47:54;;;;;;;49.03;20.97;;;;;;;-1.36;74.14;99725.38;125897;1100;104555;-70
2020/12/01 00:50:24;;;;;;;43.93;21.63;;;;;;;-1.39;74.33;99731.52;125937;1100;104446;-72
2020/12/01 00:52:52;;;;;;;46.97;21.27;;;;;;;-1.41;74.01;99729.80;125817;1100;104535;-73
2020/12/01 00:55:20;;;;;;;44.73;20.27;;;;;;;-1.42;73.78;99730.68;125833;1101;104528;-71
2020/12/01 00:57:47;;;;;;;41.90;18.27;;;;;;;-1.44;74.24;99725.50;125860;1101;104974;-71
2020/12/01 01:00:25;;;;;;;44.23;20.87;;;;;;;-1.45;74.14;99733.36;125856;1101;104538;-71
2020/12/01 01:02:52;;;;;;;43.97;20.17;;;;;;;-1.49;73.83;99732.52;125917;1101;104564;-73
2020/12/01 01:05:22;;;;;;;42.30;19.37;;;;;;;-1.51;74.00;99734.28;125862;1101;104491;-71
2020/12/01 01:07:49;;;;;;;45.63;19.40;;;;;;;-1.53;74.87;99733.44;125908;1101;104731;-70
2020/12/01 01:10:23;;;;;;;42.30;18.27;;;;;;;-1.55;74.81;99733.47;125855;1100;104431;-71
2020/12/01 01:12:50;;;;;;;37.37;16.67;;;;;;;-1.57;74.04;99729.13;125867;1099;104456;-70
2020/12/01 01:15:18;;;;;;;41.00;18.30;;;;;;;-1.60;74.25;99731.78;125847;1100;104548;-71
2020/12/01 01:17:45;;;;;;;39.63;17.63;;;;;;;-1.61;74.32;99733.54;125880;1101;104529;-72
2020/12/01 01:20:13;;;;;;;42.90;19.65;;;;;;;-1.65;74.43;99735.33;125885;1101;104469;-70
2020/12/01 01:22:40;;;;;;;41.63;19.43;;;;;;;-1.65;74.10;99732.72;126162;1101;104494;-71
2020/12/01 01:25:09;;;;;;;43.20;19.33;;;;;;;-1.65;74.08;99727.51;125901;1101;104498;-70
2020/12/01 01:27:36;;;;;;;42.45;19.70;;;;;;;-1.66;74.96;99722.29;125843;1101;104570;-69
2020/12/01 01:30:05;;;;;;;47.23;19.47;;;;;;;-1.67;73.88;99718.84;125789;1100;104482;-69
2020/12/01 01:32:33;;;;;;;40.53;17.77;;;;;;;-1.69;74.99;99719.72;126452;1093;104544;-70
2020/12/01 01:35:00;;;;;;;47.57;19.07;;;;;;;-1.70;74.49;99716.27;125869;1101;104516;-71
2020/12/01 01:37:28;;;;;;;36.70;14.40;;;;;;;-1.72;74.76;99711.92;125859;1101;104452;-70
2020/12/01 01:39:55;;;;;;;39.80;19.00;;;;;;;-1.76;74.67;99718.05;125921;1101;104548;-70
2020/12/01 01:42:22;;;;;;;45.60;20.27;;;;;;;-1.81;74.78;99708.54;125879;1101;104483;-69
2020/12/01 01:44:48;;;;;;;44.00;20.00;;;;;;;-1.85;74.98;99713.83;125903;1101;104426;-69
2020/12/01 01:47:24;;;;;;;41.20;19.23;;;;;;;-1.84;74.65;99712.94;125956;1093;104922;-70
2020/12/01 01:50:02;;;;;;;38.77;18.17;;;;;;;-1.84;74.14;99712.94;126712;1101;104478;-69
2020/12/01 01:52:35;;;;;;;37.47;16.67;;;;;;;-1.85;73.92;99716.43;127509;1101;102910;-72
2020/12/01 01:55:14;;;;;;;40.47;19.27;;;;;;;-1.86;74.05;99712.09;125870;1101;104538;-71
2020/12/01 01:57:46;;;;;;;40.27;17.53;;;;;;;-1.89;74.97;99715.61;125874;1096;104421;-71
2020/12/01 02:00:37;;;;;;;38.50;18.60;;;;;;;-1.91;74.73;99709.55;125888;1101;104541;-71
2020/12/01 02:03:04;;;;;;;36.90;15.07;;;;;;;-1.92;74.77;99710.44;126038;1101;104414;-71
2020/12/01 02:05:31;;;;;;;43.70;18.77;;;;;;;-1.95;74.51;99715.67;125885;1093;104551;-70
2020/12/01 02:08:00;;;;;;;37.07;15.70;;;;;;;-1.96;74.05;99712.19;125808;1101;104558;-70
2020/12/01 02:10:28;;;;;;;34.10;12.83;;;;;;;-1.95;74.29;99715.67;125901;1101;104563;-70
2020/12/01 02:13:01;;;;;;;40.75;17.70;;;;;;;-1.98;74.64;99713.95;127551;1101;104442;-70
2020/12/01 02:15:29;;;;;;;37.70;16.90;;;;;;;-1.99;74.82;99711.37;125907;1101;104988;-71
2020/12/01 02:17:56;;;;;;;37.67;17.90;;;;;;;-2.03;75.05;99707.07;125855;1101;104561;-71
2020/12/01 02:20:23;;;;;;;38.97;17.07;;;;;;;-2.03;75.19;99714.89;125856;1101;104878;-70
2020/12/01 02:22:55;;;;;;;40.13;16.67;;;;;;;-2.06;74.63;99714.92;125899;1101;104440;-70
2020/12/01 02:25:23;;;;;;;40.03;16.63;;;;;;;-2.11;75.19;99715.83;125885;1101;104439;-71
2020/12/01 02:27:53;;;;;;;35.33;14.27;;;;;;;-2.10;74.04;99711.50;125855;1096;104506;-71
2020/12/01 02:30:20;;;;;;;35.43;14.83;;;;;;;-2.10;74.14;99716.72;126506;1101;104503;-70
2020/12/01 02:32:48;;;;;;;33.80;14.97;;;;;;;-2.10;74.24;99709.73;125856;1093;104484;-70
2020/12/01 02:35:16;;;;;;;32.87;13.30;;;;;;;-2.12;74.92;99701.07;125811;1101;104419;-70
2020/12/01 02:37:43;;;;;;;37.47;15.97;;;;;;;-2.13;75.23;99706.31;125816;1101;104410;-70
2020/12/01 02:40:14;;;;;;;34.60;14.13;;;;;;;-2.13;74.16;99701.10;125898;1094;104532;-72
2020/12/01 02:42:50;;;;;;;33.13;14.73;;;;;;;-2.14;73.93;99697.62;125853;1101;104448;-72
2020/12/01 02:45:17;;;;;;;36.63;15.43;;;;;;;-2.15;74.49;99695.89;126061;1101;104614;-71
2020/12/01 02:47:44;;;;;;;34.67;15.40;;;;;;;-2.16;74.17;99695.92;125855;1101;104435;-71
2020/12/01 02:50:13;;;;;;;34.07;14.80;;;;;;;-2.18;73.96;99695.92;125849;1101;104533;-70
2020/12/01 02:52:40;;;;;;;33.93;15.30;;;;;;;-2.18;75.08;99687.25;125867;1101;104437;-71
2020/12/01 02:55:07;;;;;;;30.37;12.67;;;;;;;-2.20;74.24;99692.46;125903;1101;104490;-72
2020/12/01 02:57:34;;;;;;;33.00;13.80;;;;;;;-2.21;75.12;99695.95;125867;1101;104423;-69
2020/12/01 03:00:03;;;;;;;33.63;14.43;;;;;;;-2.22;74.61;99694.22;125941;1101;104871;-72
2020/12/01 03:02:30;;;;;;;34.27;14.80;;;;;;;-2.22;74.39;99693.38;125813;1093;104445;-70
2020/12/01 03:04:57;;;;;;;33.40;14.37;;;;;;;-2.22;75.19;99690.77;125926;1101;104517;-70
2020/12/01 03:07:24;;;;;;;31.27;14.23;;;;;;;-2.23;74.91;99695.09;127029;1101;104449;-70
2020/12/01 03:09:51;;;;;;;34.55;14.50;;;;;;;-2.22;74.74;99686.40;125852;1101;104413;-70
2020/12/01 03:12:18;;;;;;;34.83;14.20;;;;;;;-2.22;74.32;99689.00;125891;1101;104481;-70
2020/12/01 03:14:45;;;;;;;31.30;14.17;;;;;;;-2.23;74.31;99695.09;126080;1101;104578;-69
2020/12/01 03:17:12;;;;;;;32.67;12.93;;;;;;;-2.21;74.06;99695.95;125846;1101;104590;-71
2020/12/01 03:19:39;;;;;;;29.17;12.30;;;;;;;-2.18;74.07;99690.70;125788;1101;104471;-70
2020/12/01 03:22:06;;;;;;;29.10;13.00;;;;;;;-2.16;75.43;99683.73;125808;1101;104423;-70
2020/12/01 03:24:33;;;;;;;34.73;13.77;;;;;;;-2.14;74.37;99678.52;125812;1102;104510;-73
2020/12/01 03:27:00;;;;;;;35.20;16.30;;;;;;;-2.13;74.08;99683.70;125901;1101;104532;-70
2020/12/01 03:29:27;;;;;;;30.83;13.90;;;;;;;-2.13;75.14;99681.09;125800;1101;104948;-70
2020/12/01 03:31:54;;;;;;;34.15;14.60;;;;;;;-2.14;75.19;99675.91;125783;1101;104437;-70
2020/12/01 03:34:21;;;;;;;34.40;14.20;;;;;;;-2.12;74.45;99681.97;126015;1101;104471;-71
2020/12/01 03:36:49;;;;;;;33.83;14.13;;;;;;;-2.11;75.56;99681.94;125874;1101;104430;-71
2020/12/01 03:39:16;;;;;;;33.57;13.63;;;;;;;-2.12;74.44;99680.22;125902;1101;104893;-71
2020/12/01 03:41:43;;;;;;;33.60;13.30;;;;;;;-2.12;74.55;99672.39;125812;1101;104446;-72
2020/12/01 03:44:10;;;;;;;29.77;11.93;;;;;;;-2.11;74.33;99673.28;125810;1101;104512;-71
2020/12/01 03:46:37;;;;;;;32.73;14.70;;;;;;;-2.13;74.96;99669.83;125801;1101;104507;-71
2020/12/01 03:49:04;;;;;;;35.25;14.65;;;;;;;-2.14;74.42;99666.34;125864;1101;104443;-71
2020/12/01 03:51:31;;;;;;;33.75;13.70;;;;;;;-2.15;75.19;99666.37;125883;1101;105025;-71
2020/12/01 03:53:58;;;;;;;31.10;13.72;;;;;;;-2.17;74.02;99682.01;125958;1101;104491;-71
2020/12/01 03:56:25;;;;;;;30.00;13.40;;;;;;;-2.21;75.42;99667.28;125917;1101;104439;-71
2020/12/01 03:58:52;;;;;;;31.65;13.32;;;;;;;-2.22;74.62;99662.95;125956;1101;104529;-69
2020/12/01 04:01:19;;;;;;;30.53;13.13;;;;;;;-2.26;75.35;99663.88;125932;1100;104560;-71
2020/12/01 04:03:46;;;;;;;30.53;12.50;;;;;;;-2.29;75.33;99666.52;125838;1100;104489;-71
2020/12/01 04:06:13;;;;;;;33.60;13.90;;;;;;;-2.32;75.34;99661.34;125854;1100;104420;-70
2020/12/01 04:08:40;;;;;;;33.00;13.73;;;;;;;-2.31;74.55;99663.91;125868;1100;104514;-70
2020/12/01 04:11:09;;;;;;;33.90;14.13;;;;;;;-2.29;74.41;99653.49;125941;1100;104455;-71
2020/12/01 04:13:36;;;;;;;33.33;14.57;;;;;;;-2.27;75.44;99644.77;125921;1100;104874;-70
2020/12/01 04:16:04;;;;;;;33.50;15.20;;;;;;;-2.25;74.57;99657.80;125839;1100;104919;-70
2020/12/01 04:18:31;;;;;;;32.80;14.23;;;;;;;-2.25;75.00;99648.22;125821;1101;104481;-71
2020/12/01 04:20:58;;;;;;;33.13;12.80;;;;;;;-2.21;74.42;99643.82;125824;1101;104502;-73
2020/12/01 04:23:25;;;;;;;35.15;13.98;;;;;;;-2.20;75.15;99642.09;126564;1100;104571;-70
2020/12/01 04:25:53;;;;;;;30.32;13.88;;;;;;;-2.19;74.59;99641.22;125812;1100;104555;-71
2020/12/01 04:28:20;;;;;;;30.87;13.00;;;;;;;-2.17;74.64;99642.06;125847;1100;104440;-72
2020/12/01 04:30:46;;;;;;;31.07;13.97;;;;;;;-2.15;74.79;99648.97;125879;1101;104427;-71
2020/12/01 04:33:13;;;;;;;31.47;13.97;;;;;;;-2.13;74.52;99649.81;125799;1101;104602;-70
2020/12/01 04:35:40;;;;;;;31.70;13.57;;;;;;;-2.13;74.54;99649.81;125821;1101;104580;-73
2020/12/01 04:38:09;;;;;;;35.37;14.80;;;;;;;-2.11;74.62;99660.24;125855;1101;104552;-71
2020/12/01 04:40:39;;;;;;;29.73;12.77;;;;;;;-2.12;74.13;99655.91;125862;1101;104458;-70
2020/12/01 04:43:29;;;;;;;31.00;14.03;;;;;;;-2.12;75.38;99661.12;125848;1100;104477;-71
2020/12/01 04:45:58;;;;;;;31.60;13.50;;;;;;;-2.11;74.73;99653.27;125822;1101;104449;-71
2020/12/01 04:48:43;;;;;;;32.90;13.20;;;;;;;-2.10;75.53;99662.81;125896;1101;104486;-72
2020/12/01 04:51:44;;;;;;;27.53;11.63;;;;;;;-2.09;74.49;99655.88;125857;1102;104449;-72
2020/12/01 04:54:50;;;;;;;31.67;13.33;;;;;;;-2.02;75.15;99667.09;125902;1101;104529;-70
2020/12/01 04:58:02;;;;;;;35.73;13.67;;;;;;;-1.96;75.58;99667.02;125894;1102;104542;-71
2020/12/01 05:00:59;;;;;;;36.73;15.67;;;;;;;-1.89;74.50;99662.58;125565;1104;104497;-72
2020/12/01 05:03:57;;;;;;;35.03;13.87;;;;;;;-1.83;74.65;99659.91;125775;1101;104529;-70
2020/12/01 05:09:40;;;;;;;37.33;15.60;;;;;;;-1.74;75.87;99669.34;125738;1101;104446;-71
2020/12/01 05:12:26;;;;;;;37.50;15.60;;;;;;;-1.71;75.67;99664.09;125916;1100;104682;-74
2020/12/01 05:14:59;;;;;;;31.97;11.70;;;;;;;-1.69;75.25;99668.42;125826;1100;104507;-69
2020/12/01 05:17:47;;;;;;;34.53;15.33;;;;;;;-1.69;74.58;99665.82;125838;1099;104507;-71
2020/12/01 05:20:15;;;;;;;35.43;15.83;;;;;;;-1.68;75.69;99664.06;125922;1099;104338;-71
2020/12/01 05:22:52;;;;;;;34.73;16.37;;;;;;;-1.68;74.83;99674.49;125801;1101;104516;-71
2020/12/01 05:25:25;;;;;;;35.90;15.07;;;;;;;-1.67;75.75;99671.00;125986;1101;104487;-71
2020/12/01 05:28:17;;;;;;;32.77;14.10;;;;;;;-1.69;75.86;99665.82;125913;1101;104516;-71
2020/12/01 05:30:45;;;;;;;29.77;11.63;;;;;;;-1.65;75.92;99667.51;125785;1101;104423;-72
2020/12/01 05:33:20;;;;;;;34.23;15.00;;;;;;;-1.67;74.92;99666.66;126388;1101;104480;-70
2020/12/01 05:36:24;;;;;;;31.90;12.97;;;;;;;-1.65;75.21;99658.80;126347;1101;104577;-72
2020/12/01 05:39:02;;;;;;;30.97;13.50;;;;;;;-1.65;75.77;99658.80;125924;1096;104519;-70
2020/12/01 05:41:33;;;;;;;33.97;15.13;;;;;;;-1.64;75.87;99668.36;125955;1101;104631;-71
2020/12/01 05:44:16;;;;;;;35.03;16.10;;;;;;;-1.63;75.22;99671.84;125776;1101;104465;-71
2020/12/01 05:46:56;;;;;;;28.50;13.80;;;;;;;-1.59;75.90;99668.28;125895;1100;104914;-71
2020/12/01 05:49:32;;;;;;;30.47;13.27;;;;;;;-1.57;74.73;99664.78;125829;1101;104440;-71
2020/12/01 05:52:17;;;;;;;31.90;13.03;;;;;;;-1.55;75.53;99669.97;125870;1100;104448;-70
2020/12/01 05:54:48;;;;;;;34.23;14.23;;;;;;;-1.53;74.78;99668.20;125926;1100;104449;-70
2020/12/01 05:57:20;;;;;;;32.23;14.13;;;;;;;-1.52;75.42;99665.59;125904;1101;104497;-71
2020/12/01 05:59:55;;;;;;;30.65;13.05;;;;;;;-1.50;75.90;99666.44;125887;1102;104528;-71
2020/12/01 06:02:47;;;;;;;32.90;13.70;;;;;;;-1.45;76.09;99673.34;125879;1100;104529;-71
2020/12/01 06:05:20;;;;;;;31.33;13.10;;;;;;;-1.43;75.56;99676.80;125872;1100;104619;-71
2020/12/01 06:07:50;;;;;;;28.27;12.20;;;;;;;-1.42;75.10;99670.66;125820;1100;104420;-71
2020/12/01 06:10:32;;;;;;;29.57;12.17;;;;;;;-1.42;75.65;99678.48;126033;1098;104437;-72
2020/12/01 06:13:18;;;;;;;29.40;12.77;;;;;;;-1.43;75.35;99668.97;125856;1101;104532;-71
2020/12/01 06:16:08;;;;;;;31.43;14.67;;;;;;;-1.43;74.97;99672.42;126530;1093;104588;-73
2020/12/01 06:18:51;;;;;;;34.63;14.90;;;;;;;-1.40;75.49;99674.98;125838;1101;104557;-74
2020/12/01 06:21:38;;;;;;;41.10;17.33;;;;;;;-1.40;75.33;99671.50;125894;1100;104456;-72
2020/12/01 06:24:43;;;;;;;41.90;18.33;;;;;;;-1.42;75.33;99666.31;125843;1100;104417;-72
2020/12/01 06:27:48;;;;;;;39.20;16.02;;;;;;;-1.40;75.47;99676.72;126060;1100;104592;-72
2020/12/01 06:30:34;;;;;;;49.20;21.95;;;;;;;-1.42;75.96;99675.88;125876;1100;104558;-72
2020/12/01 06:33:35;;;;;;;43.40;20.20;;;;;;;-1.40;75.10;99671.50;125887;1101;104497;-72
2020/12/01 06:36:28;;;;;;;40.30;18.37;;;;;;;-1.37;75.28;99669.73;125814;1101;105065;-73
2020/12/01 06:39:15;;;;;;;37.47;18.00;;;;;;;-1.38;75.37;99677.56;125794;1101;104987;-71
2020/12/01 06:42:08;;;;;;;34.27;15.17;;;;;;;-1.38;75.47;99675.83;125810;1102;104416;-71
2020/12/01 06:44:40;;;;;;;35.03;14.50;;;;;;;-1.37;75.27;99674.06;125849;1101;104467;-72
2020/12/01 06:47:07;;;;;;;31.83;14.17;;;;;;;-1.36;74.91;99671.45;125933;1101;104503;-72
2020/12/01 06:49:38;;;;;;;33.13;14.67;;;;;;;-1.36;76.13;99670.58;125881;1101;104541;-72
2020/12/01 06:52:13;;;;;;;32.73;13.67;;;;;;;-1.35;75.73;99670.57;125823;1101;104552;-73
2020/12/01 06:54:53;;;;;;;37.00;16.33;;;;;;;-1.35;75.74;99667.96;125776;1096;104452;-72
2020/12/01 06:57:33;;;;;;;31.30;13.67;;;;;;;-1.34;75.32;99668.80;125831;1102;104485;-74
2020/12/01 07:00:03;;;;;;;32.37;13.97;;;;;;;-1.30;74.98;99660.05;125827;1101;104481;-72
2020/12/01 07:02:35;;;;;;;35.57;15.17;;;;;;;-1.28;74.96;99657.44;125899;1101;104522;-71
2020/12/01 07:05:07;;;;;;;36.00;16.40;;;;;;;-1.27;76.19;99651.33;125856;1102;104554;-70
2020/12/01 07:07:42;;;;;;;32.50;14.85;;;;;;;-1.25;76.16;99660.85;125879;1101;104526;-71
2020/12/01 07:10:29;;;;;;;38.87;18.17;;;;;;;-1.22;75.08;99668.64;125746;1101;104515;-69
2020/12/01 07:13:22;;;;;;;35.90;15.50;;;;;;;-1.21;75.78;99654.70;125933;1101;104429;-71
2020/12/01 07:15:51;;;;;;;34.23;15.40;;;;;;;-1.18;75.27;99647.71;125899;1101;104449;-72
2020/12/01 07:18:28;;;;;;;38.27;16.53;;;;;;;-1.16;75.74;99656.38;125832;1101;104506;-74
2020/12/01 07:21:20;;;;;;;38.20;17.57;;;;;;;-1.17;75.01;99657.27;125885;1101;104461;-72
2020/12/01 07:23:59;;;;;;;36.63;13.80;;;;;;;-1.16;75.76;99654.62;127073;1101;102210;-74
2020/12/01 07:26:49;;;;;;;34.17;17.27;;;;;;;-1.14;75.64;99652.00;125914;1101;104484;-72
2020/12/01 07:29:20;;;;;;;37.10;17.53;;;;;;;-1.11;75.08;99651.95;126031;1100;104541;-72
2020/12/01 07:31:47;;;;;;;38.97;17.40;;;;;;;-1.10;75.54;99651.07;126722;1101;104453;-71
2020/12/01 07:34:17;;;;;;;29.57;13.27;;;;;;;-1.09;76.01;99653.64;125792;1101;104590;-71
2020/12/01 07:36:50;;;;;;;36.63;17.33;;;;;;;-1.08;76.09;99654.52;125885;1101;104445;-71
2020/12/01 07:39:24;;;;;;;34.43;15.90;;;;;;;-1.07;75.41;99651.03;125916;1100;104442;-71
2020/12/01 07:42:02;;;;;;;32.87;13.63;;;;;;;-1.05;75.63;99651.87;125910;1101;104955;-72
2020/12/01 07:44:41;;;;;;;33.23;15.00;;;;;;;-1.03;75.44;99650.09;125817;1093;104445;-70
2020/12/01 07:47:17;;;;;;;33.83;15.57;;;;;;;-1.03;75.71;99651.83;125920;1101;104490;-70
2020/12/01 07:49:44;;;;;;;34.15;14.40;;;;;;;-1.05;75.84;99646.64;126669;1101;104423;-70
2020/12/01 07:52:40;;;;;;;30.65;13.30;;;;;;;-1.04;75.64;99653.59;125916;1101;104490;-71
2020/12/01 07:55:24;;;;;;;34.23;14.83;;;;;;;-1.03;75.95;99641.38;125829;1101;104557;-71
2020/12/01 07:58:13;;;;;;;;;;;;;;;-1.02;75.85;99645.72;125913;1101;104425;-71
2020/12/01 08:00:53;;;;;;;36.50;13.67;;;;;;;-1.01;75.97;99648.29;126725;1101;104423;-71
2020/12/01 08:03:26;;;;;;;32.70;15.23;;;;;;;-0.97;76.03;99643.90;125875;1101;104536;-72
2020/12/01 08:06:06;;;;;;;38.43;16.40;;;;;;;-0.94;76.37;99642.09;125882;1101;104592;-72
2020/12/01 08:08:40;;;;;;;34.73;15.17;;;;;;;-0.92;76.18;99644.69;125883;1101;104574;-77
2020/12/01 08:11:14;;;;;;;34.43;14.80;;;;;;;-0.91;76.32;99652.48;125856;1101;104452;-73
2020/12/01 08:13:43;;;;;;;34.83;15.40;;;;;;;-0.88;76.08;99645.48;125917;1101;104465;-71
2020/12/01 08:16:18;;;;;;;30.03;13.63;;;;;;;-0.86;75.52;99649.81;125858;1101;104519;-74
2020/12/01 08:18:48;;;;;;;35.50;16.27;;;;;;;-0.85;75.18;99650.66;125897;1101;104497;-72
2020/12/01 08:21:20;;;;;;;30.90;13.67;;;;;;;-0.83;76.08;99641.05;125849;1100;104532;-72
2020/12/01 08:23:51;;;;;;;37.23;15.97;;;;;;;-0.81;75.90;99644.50;125904;1102;104436;-74
2020/12/01 08:26:23;;;;;;;34.30;13.95;;;;;;;-0.80;75.66;99641.85;125909;1101;104427;-73
2020/12/01 08:29:11;;;;;;;32.77;13.97;;;;;;;-0.79;75.33;99637.50;125860;1101;104560;-76
2020/12/01 08:31:44;;;;;;;32.37;12.83;;;;;;;-0.75;76.18;99634.80;125856;1100;104561;-73
2020/12/01 08:34:44;;;;;;;34.90;15.90;;;;;;;-0.71;76.00;99642.59;125850;1093;105075;-73
2020/12/01 08:37:47;;;;;;;34.23;14.67;;;;;;;-0.70;75.91;99634.74;125797;1101;104455;-73
2020/12/01 08:40:32;;;;;;;35.85;15.05;;;;;;;-0.66;75.54;99632.92;125827;1101;104513;-72
2020/12/01 08:43:21;;;;;;;31.13;13.67;;;;;;;-0.59;75.42;99639.77;125831;1101;104446;-73
2020/12/01 08:46:27;;;;;;;30.20;12.07;;;;;;;-0.54;75.79;99637.06;125691;1096;104484;-74
2020/12/01 08:49:23;;;;;;;33.03;14.37;;;;;;;-0.50;75.43;99639.61;125465;1100;104618;-72
2020/12/01 08:52:00;;;;;;;31.63;14.13;;;;;;;-0.41;75.80;99641.19;125745;1104;104595;-73
2020/12/01 08:54:32;;;;;;;30.13;11.93;;;;;;;-0.36;75.87;99636.73;125577;1093;104503;-72
2020/12/01 08:57:02;;;;;;;30.63;12.80;;;;;;;-0.32;75.43;99640.14;125502;1101;104443;-73
2020/12/01 08:59:53;;;;;;;27.77;11.50;;;;;;;-0.28;75.55;99640.97;125870;1101;104985;-73
2020/12/01 09:02:21;;;;;;;29.63;11.67;;;;;;;-0.27;75.70;99645.30;125849;1101;104445;-73
2020/12/01 09:04:59;;;;;;;31.87;13.13;;;;;;;-0.28;75.20;99640.97;125867;1102;104486;-73
2020/12/01 09:07:34;;;;;;;33.37;13.00;;;;;;;-0.28;75.29;99636.58;125911;1100;104551;-72
2020/12/01 09:10:22;;;;;;;30.70;12.90;;;;;;;-0.27;75.70;99640.92;125880;1101;104465;-72
2020/12/01 09:13:44;;;;;;;27.97;11.70;;;;;;;-0.24;75.68;99632.17;125838;1101;104542;-72
2020/12/01 09:24:18;;;;;;;25.67;11.10;;;;;;;-0.16;75.33;99628.52;125842;1093;104589;-72
2020/12/01 09:27:08;;;;;;;29.43;13.20;;;;;;;-0.16;75.08;99627.63;125824;1093;104506;-73
2020/12/01 09:29:44;;;;;;;30.87;12.93;;;;;;;-0.12;75.36;99629.30;125687;1093;104555;-74
2020/12/01 09:32:18;;;;;;;28.10;12.25;;;;;;;-0.09;75.48;99624.01;125720;1093;104862;-73
2020/12/01 09:34:45;;;;;;;27.85;12.25;;;;;;;-0.04;75.11;99632.63;125777;1101;104448;-72
2020/12/01 09:37:12;;;;;;;24.73;10.47;;;;;;;-0.03;75.09;99623.89;125681;1095;104927;-72
2020/12/01 09:39:40;;;;;;;28.50;12.40;;;;;;;-0.04;75.68;99614.32;125729;1098;104450;-74
2020/12/01 09:47:23;;;;;;;29.37;12.20;;;;;;;0.09;75.64;99619.31;125631;1093;104538;-74
2020/12/01 09:49:50;;;;;;;27.90;12.80;;;;;;;0.10;75.12;99610.56;125747;1101;104483;-73
2020/12/01 09:52:26;;;;;;;31.20;12.30;;;;;;;0.12;74.97;99614.86;125751;1101;104438;-73
2020/12/01 09:55:27;;;;;;;29.07;12.50;;;;;;;0.14;75.43;99613.07;125898;1100;104416;-73
2020/12/01 09:57:56;;;;;;;27.80;12.03;;;;;;;0.19;75.15;99615.61;125789;1101;104420;-72
2020/12/01 10:08:35;;;;;;;28.07;11.47;;;;;;;0.42;75.24;99594.14;125884;1101;104650;-72
2020/12/01 10:11:22;;;;;;;26.40;12.00;;;;;;;0.48;74.79;99600.13;125871;1093;104449;-73
2020/12/01 10:15:28;;;;;;;26.77;10.53;;;;;;;0.53;74.99;99591.30;125886;1101;104484;-74
2020/12/01 10:25:41;;;;;;;28.20;11.08;;;;;;;0.57;75.23;99598.19;125959;1093;104436;-72
2020/12/01 10:35:54;;;;;;;29.13;12.27;;;;;;;0.69;75.21;99596.16;125881;1101;104909;-71
2020/12/01 10:38:21;;;;;;;27.60;12.85;;;;;;;0.73;75.24;99593.45;125917;1098;104869;-72
2020/12/01 10:40:51;;;;;;;27.37;11.43;;;;;;;0.76;74.75;99586.42;125931;1098;104481;-71
2020/12/01 10:43:18;;;;;;;27.27;11.95;;;;;;;0.78;75.08;99592.48;125948;1093;104950;-72
2020/12/01 10:45:45;;;;;;;27.20;11.40;;;;;;;0.77;75.01;99588.98;125864;1101;104625;-74
2020/12/01 10:48:19;;;;;;;29.77;14.03;;;;;;;0.78;74.52;99595.10;125914;1100;104554;-73
2020/12/01 10:50:47;;;;;;;29.40;12.67;;;;;;;0.83;74.83;99593.20;125922;1098;104919;-74
2020/12/01 10:53:13;;;;;;;25.97;11.90;;;;;;;0.85;74.60;99594.03;125877;1101;104874;-71
2020/12/01 10:55:40;;;;;;;27.57;12.00;;;;;;;0.88;75.04;99586.09;125840;1101;104414;-76
2020/12/01 10:58:07;;;;;;;26.20;11.83;;;;;;;0.88;74.35;99599.20;125911;1101;104448;-72
2020/12/01 11:00:34;;;;;;;26.97;11.40;;;;;;;0.86;74.70;99601.87;125888;1101;104526;-73
2020/12/01 11:03:02;;;;;;;27.93;12.17;;;;;;;0.86;74.70;99603.61;125882;1101;104912;-74
2020/12/01 11:05:31;;;;;;;29.72;12.07;;;;;;;0.85;74.80;99601.88;125966;1098;104461;-73
2020/12/01 11:07:59;;;;;;;31.33;13.77;;;;;;;0.88;74.40;99596.58;125895;1093;104420;-72
2020/12/01 11:10:27;;;;;;;31.50;12.93;;;;;;;0.89;74.66;99586.08;125925;1101;104567;-70
2020/12/01 11:12:55;;;;;;;28.83;11.17;;;;;;;0.94;74.86;99596.43;125897;1101;104423;-72
2020/12/01 11:15:23;;;;;;;28.70;11.63;;;;;;;0.95;74.12;99590.30;125958;1098;104493;-76
2020/12/01 11:17:49;;;;;;;28.20;12.07;;;;;;;1.01;74.56;99591.92;125932;1100;104525;-72
2020/12/01 11:20:18;;;;;;;28.87;11.63;;;;;;;1.01;74.61;99586.68;125878;1101;104592;-72
2020/12/01 11:22:49;;;;;;;30.13;13.13;;;;;;;1.04;74.15;99591.81;125905;1093;104619;-72
2020/12/01 11:25:18;;;;;;;26.70;11.40;;;;;;;1.00;74.44;99595.44;125846;1101;104424;-71
2020/12/01 11:27:47;;;;;;;30.17;12.90;;;;;;;0.97;74.35;99583.26;125877;1100;104522;-71
2020/12/01 11:30:16;;;;;;;31.93;12.97;;;;;;;0.98;74.53;99584.98;125958;1100;104525;-71
2020/12/01 11:32:43;;;;;;;28.17;11.13;;;;;;;1.00;74.39;99587.58;125907;1096;104628;-71
2020/12/01 11:35:11;;;;;;;27.55;11.85;;;;;;;0.99;74.61;99586.70;125898;1100;104701;-73
2020/12/01 11:37:39;;;;;;;29.17;12.83;;;;;;;1.00;74.61;99590.20;125795;1097;104452;-71
2020/12/01 11:40:09;;;;;;;30.53;12.90;;;;;;;1.03;73.98;99584.84;126023;1102;104589;-72
2020/12/01 11:42:36;;;;;;;30.67;13.40;;;;;;;1.06;74.21;99579.53;125901;1093;104494;-71
2020/12/01 11:45:05;;;;;;;27.07;11.60;;;;;;;1.10;74.32;99577.72;125959;1098;104423;-71
2020/12/01 11:47:32;;;;;;;29.43;12.30;;;;;;;1.12;74.17;99579.38;125947;1098;104609;-73
2020/12/01 11:49:59;;;;;;;30.05;12.18;;;;;;;1.10;74.45;99572.48;125851;1093;104589;-72
2020/12/01 11:52:26;;;;;;;24.67;10.57;;;;;;;1.09;73.79;99576.84;125871;1100;104462;-71
2020/12/01 11:54:53;;;;;;;30.00;12.67;;;;;;;1.07;74.37;99577.79;125875;1101;104411;-72
2020/12/01 11:57:20;;;;;;;30.10;13.33;;;;;;;1.02;74.18;99581.39;125898;1100;105076;-73
2020/12/01 11:59:47;;;;;;;28.40;12.80;;;;;;;1.03;74.00;99575.25;125884;1100;104596;-71
2020/12/01 12:02:14;;;;;;;29.77;12.63;;;;;;;1.07;74.35;99569.94;126000;1098;104392;-69
2020/12/01 12:04:53;;;;;;;29.60;13.07;;;;;;;1.07;74.33;99565.53;125881;1101;104483;-72
2020/12/01 12:07:21;;;;;;;29.17;12.23;;;;;;;1.10;74.11;99560.22;125927;1100;104426;-71
2020/12/01 12:09:49;;;;;;;32.27;14.20;;;;;;;1.10;73.95;99560.22;125906;1101;104487;-71
2020/12/01 12:12:16;;;;;;;31.00;13.27;;;;;;;1.11;74.13;99566.34;125865;1101;104490;-71
2020/12/01 12:14:44;;;;;;;31.10;13.47;;;;;;;1.11;74.09;99567.18;125872;1100;104528;-72